createdAt,value
2018-05-07T00:01:31.021Z,8.90
2018-05-07T00:03:59.171Z,8.90
2018-05-07T00:06:27.373Z,8.90
2018-05-07T00:08:55.515Z,8.90
2018-05-07T00:11:23.703Z,8.90
2018-05-07T00:13:51.846Z,8.80
2018-05-07T00:16:20.008Z,8.90
2018-05-07T00:18:48.156Z,8.80
2018-05-07T00:21:16.323Z,8.80
2018-05-07T00:23:44.472Z,8.80
2018-05-07T00:26:12.640Z,8.80
2018-05-07T00:28:40.827Z,8.70
2018-05-07T00:31:08.983Z,8.60
2018-05-07T00:33:37.128Z,8.60
2018-05-07T00:36:05.305Z,8.50
2018-05-07T00:38:33.451Z,8.50
2018-05-07T00:41:01.628Z,8.40
2018-05-07T00:43:30.536Z,8.40
2018-05-07T00:45:58.709Z,8.30
2018-05-07T00:48:26.851Z,8.30
2018-05-07T00:50:55.052Z,8.30
2018-05-07T00:53:23.199Z,8.30
2018-05-07T00:55:51.340Z,8.30
2018-05-07T00:58:20.368Z,8.30
2018-05-07T01:00:48.511Z,8.30
2018-05-07T01:03:16.675Z,8.30
2018-05-07T01:05:44.816Z,8.30
2018-05-07T01:08:12.989Z,8.30
2018-05-07T01:10:41.185Z,8.30
2018-05-07T01:13:09.355Z,8.30
2018-05-07T01:15:37.506Z,8.20
2018-05-07T01:18:05.671Z,8.20
2018-05-07T01:20:33.825Z,8.20
2018-05-07T01:23:01.996Z,8.10
2018-05-07T01:25:30.145Z,8.10
2018-05-07T01:27:58.322Z,8.10
2018-05-07T01:30:26.464Z,8.00
2018-05-07T01:32:54.632Z,8.00
2018-05-07T01:35:22.778Z,7.90
2018-05-07T01:37:50.956Z,7.90
2018-05-07T01:40:19.864Z,7.80
2018-05-07T01:42:48.040Z,7.80
2018-05-07T01:45:16.190Z,7.80
2018-05-07T01:47:44.367Z,7.80
2018-05-07T01:50:12.516Z,7.80
2018-05-07T01:52:40.685Z,7.80
2018-05-07T01:55:08.855Z,7.70
2018-05-07T01:57:37.007Z,7.70
2018-05-07T02:00:05.179Z,7.70
2018-05-07T02:02:33.332Z,7.60
2018-05-07T02:05:01.515Z,7.60
2018-05-07T02:07:29.652Z,7.50
2018-05-07T02:09:58.592Z,7.50
2018-05-07T02:12:26.737Z,7.50
2018-05-07T02:14:55.668Z,7.50
2018-05-07T02:17:23.821Z,7.40
2018-05-07T02:19:51.983Z,7.50
2018-05-07T02:22:20.137Z,7.40
2018-05-07T02:24:48.311Z,7.30
2018-05-07T02:27:17.223Z,7.30
2018-05-07T02:29:45.399Z,7.30
2018-05-07T02:32:13.546Z,7.30
2018-05-07T02:34:41.719Z,7.30
2018-05-07T02:37:09.864Z,7.20
2018-05-07T02:39:38.056Z,7.20
2018-05-07T02:42:06.202Z,7.20
2018-05-07T02:44:34.344Z,7.10
2018-05-07T02:47:02.512Z,7.10
2018-05-07T02:49:30.657Z,7.00
2018-05-07T02:51:58.828Z,7.00
2018-05-07T02:54:26.977Z,7.00
2018-05-07T02:56:55.151Z,6.90
2018-05-07T02:59:23.300Z,6.90
2018-05-07T03:01:51.469Z,6.90
2018-05-07T03:04:19.618Z,6.90
2018-05-07T03:06:47.792Z,6.90
2018-05-07T03:09:15.940Z,6.90
2018-05-07T03:11:44.117Z,6.90
2018-05-07T03:14:12.264Z,6.90
2018-05-07T03:16:40.443Z,6.90
2018-05-07T03:19:08.589Z,6.90
2018-05-07T03:21:36.768Z,6.90
2018-05-07T03:24:04.916Z,6.80
2018-05-07T03:26:33.088Z,6.80
2018-05-07T03:29:01.234Z,6.80
2018-05-07T03:31:30.177Z,6.80
2018-05-07T03:33:58.323Z,6.80
2018-05-07T03:36:26.493Z,6.80
2018-05-07T03:38:54.643Z,6.80
2018-05-07T03:41:22.818Z,6.80
2018-05-07T03:43:50.955Z,6.80
2018-05-07T03:46:19.100Z,6.80
2018-05-07T03:48:47.334Z,6.80
2018-05-07T03:51:15.435Z,6.80
2018-05-07T03:53:43.607Z,6.80
2018-05-07T03:56:11.751Z,6.90
2018-05-07T03:58:39.926Z,6.90
2018-05-07T04:01:08.073Z,6.90
2018-05-07T04:03:36.243Z,6.90
2018-05-07T04:06:04.392Z,6.90
2018-05-07T04:08:32.564Z,6.90
2018-05-07T04:11:00.709Z,7.00
2018-05-07T04:13:28.885Z,7.00
2018-05-07T04:15:57.034Z,7.00
2018-05-07T04:18:37.012Z,7.00
2018-05-07T04:21:10.956Z,7.00
2018-05-07T04:23:50.850Z,7.10
2018-05-07T04:26:19.036Z,7.10
2018-05-07T04:28:47.198Z,7.20
2018-05-07T04:31:15.344Z,7.30
2018-05-07T04:33:43.562Z,7.30
2018-05-07T04:36:11.690Z,7.40
2018-05-07T04:38:39.861Z,7.50
2018-05-07T04:41:08.004Z,7.50
2018-05-07T04:43:36.177Z,7.60
2018-05-07T04:46:04.323Z,7.70
2018-05-07T04:48:33.255Z,8.00
2018-05-07T04:51:01.406Z,8.00
2018-05-07T04:53:29.583Z,8.10
2018-05-07T04:55:57.732Z,8.20
2018-05-07T04:58:25.900Z,8.30
2018-05-07T05:00:54.064Z,8.50
2018-05-07T05:03:22.233Z,8.60
2018-05-07T05:05:50.378Z,8.70
2018-05-07T05:08:18.552Z,8.80
2018-05-07T05:10:46.692Z,9.00
2018-05-07T05:13:14.834Z,9.20
2018-05-07T05:15:43.011Z,9.30
2018-05-07T05:18:11.151Z,9.40
2018-05-07T05:20:39.328Z,9.60
2018-05-07T05:23:07.485Z,9.70
2018-05-07T05:25:35.659Z,9.90
2018-05-07T05:28:03.813Z,10.00
2018-05-07T05:30:31.996Z,10.20
2018-05-07T05:33:00.153Z,10.30
2018-05-07T05:35:29.141Z,10.70
2018-05-07T05:37:58.056Z,10.80
2018-05-07T05:40:26.232Z,10.80
2018-05-07T05:42:54.389Z,10.90
2018-05-07T05:45:22.565Z,11.00
2018-05-07T05:47:50.722Z,11.20
2018-05-07T05:50:19.667Z,11.40
2018-05-07T05:52:47.841Z,11.40
2018-05-07T05:55:16.025Z,11.60
2018-05-07T05:57:44.186Z,11.70
2018-05-07T06:00:12.577Z,11.90
2018-05-07T06:02:40.748Z,12.00
2018-05-07T06:05:08.904Z,12.10
2018-05-07T06:07:37.087Z,12.30
2018-05-07T06:10:05.239Z,12.40
2018-05-07T06:12:33.415Z,12.50
2018-05-07T06:15:01.628Z,12.70
2018-05-07T06:17:29.767Z,12.80
2018-05-07T06:19:57.931Z,12.90
2018-05-07T06:22:26.107Z,13.00
2018-05-07T06:24:54.255Z,13.10
2018-05-07T06:27:23.298Z,13.40
2018-05-07T06:29:51.479Z,13.40
2018-05-07T06:32:19.656Z,13.50
2018-05-07T06:34:47.811Z,13.70
2018-05-07T06:37:16.012Z,13.80
2018-05-07T06:39:44.169Z,14.00
2018-05-07T06:42:12.343Z,14.20
2018-05-07T06:44:40.500Z,14.30
2018-05-07T06:47:08.681Z,14.50
2018-05-07T06:49:36.829Z,14.60
2018-05-07T06:52:05.033Z,14.80
2018-05-07T06:54:33.227Z,14.90
2018-05-07T06:57:01.440Z,15.00
2018-05-07T06:59:29.697Z,15.20
2018-05-07T07:01:58.739Z,15.50
2018-05-07T07:04:26.987Z,15.40
2018-05-07T07:06:55.968Z,15.70
2018-05-07T07:09:24.202Z,15.70
2018-05-07T07:11:52.748Z,15.90
2018-05-07T07:14:21.881Z,16.50
2018-05-07T07:16:50.076Z,16.50
2018-05-07T07:19:18.302Z,16.90
2018-05-07T07:21:46.528Z,17.40
2018-05-07T07:24:15.514Z,18.20
2018-05-07T07:26:43.676Z,18.10
2018-05-07T07:29:11.867Z,18.60
2018-05-07T07:31:40.033Z,19.00
2018-05-07T07:34:08.341Z,19.40
2018-05-07T07:36:36.431Z,19.70
2018-05-07T07:39:05.431Z,20.10
2018-05-07T07:41:33.597Z,20.30
2018-05-07T07:44:01.821Z,20.50
2018-05-07T07:46:30.005Z,20.70
2018-05-07T07:48:58.197Z,20.70
2018-05-07T07:51:26.384Z,21.00
2018-05-07T07:53:55.336Z,21.30
2018-05-07T07:56:23.496Z,21.20
2018-05-07T07:58:51.685Z,21.30
2018-05-07T08:01:19.856Z,21.40
2018-05-07T08:03:48.141Z,21.50
2018-05-07T08:06:16.299Z,21.60
2018-05-07T08:08:44.495Z,21.70
2018-05-07T08:11:12.648Z,21.60
2018-05-07T08:13:40.865Z,21.70
2018-05-07T08:16:09.065Z,21.90
2018-05-07T08:18:37.241Z,22.10
2018-05-07T08:21:05.495Z,22.10
2018-05-07T08:23:33.660Z,22.10
2018-05-07T08:26:02.623Z,22.30
2018-05-07T08:28:30.790Z,22.30
2018-05-07T08:30:59.041Z,22.40
2018-05-07T08:33:27.292Z,22.40
2018-05-07T08:35:55.516Z,22.50
2018-05-07T08:38:23.733Z,22.60
2018-05-07T08:40:52.727Z,22.60
2018-05-07T08:43:20.931Z,22.60
2018-05-07T08:45:49.282Z,22.70
2018-05-07T08:48:17.633Z,22.70
2018-05-07T08:50:45.912Z,22.80
2018-05-07T08:53:14.168Z,22.80
2018-05-07T08:55:42.353Z,22.70
2018-05-07T08:58:10.516Z,22.60
2018-05-07T09:00:38.745Z,22.40
2018-05-07T09:03:06.945Z,22.40
2018-05-07T09:05:35.149Z,22.30
2018-05-07T09:08:03.342Z,22.10
2018-05-07T09:10:31.485Z,22.10
2018-05-07T09:12:59.668Z,22.10
2018-05-07T09:15:27.831Z,22.10
2018-05-07T09:17:56.090Z,22.10
2018-05-07T09:20:24.243Z,22.10
2018-05-07T09:22:52.426Z,22.10
2018-05-07T09:25:20.582Z,22.10
2018-05-07T09:27:48.760Z,22.10
2018-05-07T09:30:16.924Z,22.00
2018-05-07T09:32:45.116Z,22.00
2018-05-07T09:35:13.272Z,22.00
2018-05-07T09:37:42.211Z,22.00
2018-05-07T09:40:10.365Z,22.00
2018-05-07T09:42:38.552Z,21.90
2018-05-07T09:45:06.699Z,22.00
2018-05-07T09:47:34.884Z,22.00
2018-05-07T09:50:03.046Z,22.00
2018-05-07T09:52:31.227Z,22.10
2018-05-07T09:54:59.384Z,22.10
2018-05-07T09:57:28.332Z,22.10
2018-05-07T09:59:56.504Z,22.00
2018-05-07T10:02:24.709Z,21.90
2018-05-07T10:04:53.623Z,21.80
2018-05-07T10:07:21.781Z,21.80
2018-05-07T10:09:50.726Z,21.90
2018-05-07T10:12:18.875Z,21.90
2018-05-07T10:14:47.053Z,21.90
2018-05-07T10:17:15.214Z,21.90
2018-05-07T10:19:43.396Z,21.80
2018-05-07T10:22:11.547Z,21.80
2018-05-07T10:24:40.486Z,21.90
2018-05-07T10:27:08.636Z,21.90
2018-05-07T10:29:36.815Z,21.90
2018-05-07T10:32:04.969Z,21.90
2018-05-07T10:34:33.157Z,21.90
2018-05-07T10:37:01.329Z,21.90
2018-05-07T10:39:29.509Z,22.00
2018-05-07T10:41:57.665Z,22.10
2018-05-07T10:44:25.844Z,22.00
2018-05-07T10:46:54.025Z,21.80
2018-05-07T10:49:22.204Z,21.80
2018-05-07T10:51:50.371Z,21.90
2018-05-07T10:54:18.572Z,21.90
2018-05-07T10:56:46.720Z,22.00
2018-05-07T10:59:14.876Z,22.10
2018-05-07T11:01:43.076Z,22.00
2018-05-07T11:04:11.229Z,22.10
2018-05-07T11:06:39.399Z,22.10
2018-05-07T11:09:07.562Z,22.10
2018-05-07T11:11:36.500Z,22.20
2018-05-07T11:14:04.655Z,22.20
2018-05-07T11:16:32.836Z,22.20
2018-05-07T11:19:01.001Z,22.20
2018-05-07T11:21:29.193Z,22.20
2018-05-07T11:23:57.363Z,22.20
2018-05-07T11:26:25.715Z,22.30
2018-05-07T11:28:53.872Z,22.30
2018-05-07T11:31:22.056Z,22.30
2018-05-07T11:33:50.239Z,22.30
2018-05-07T11:36:18.416Z,22.30
2018-05-07T11:38:46.571Z,22.20
2018-05-07T11:41:15.548Z,22.30
2018-05-07T11:43:43.695Z,22.20
2018-05-07T11:46:11.904Z,22.30
2018-05-07T11:48:40.079Z,22.30
2018-05-07T11:51:09.001Z,22.20
2018-05-07T11:53:37.195Z,22.20
2018-05-07T11:56:05.356Z,22.30
2018-05-07T11:58:33.590Z,22.30
2018-05-07T12:01:02.518Z,22.30
2018-05-07T12:03:30.727Z,22.30
2018-05-07T12:05:58.883Z,22.40
2018-05-07T12:08:27.056Z,22.40
2018-05-07T12:10:55.208Z,22.40
2018-05-07T12:13:23.387Z,22.20
2018-05-07T12:15:51.639Z,22.10
2018-05-07T12:18:19.745Z,22.20
2018-05-07T12:20:47.895Z,22.10
2018-05-07T12:23:16.136Z,22.20
2018-05-07T12:25:44.244Z,22.20
2018-05-07T12:28:12.421Z,22.20
2018-05-07T12:30:40.571Z,22.20
2018-05-07T12:33:08.773Z,22.20
2018-05-07T12:35:36.929Z,22.30
2018-05-07T12:38:05.857Z,22.40
2018-05-07T12:40:34.040Z,22.40
2018-05-07T12:43:02.184Z,22.40
2018-05-07T12:45:30.364Z,22.40
2018-05-07T12:47:58.558Z,22.40
2018-05-07T12:50:26.708Z,22.50
2018-05-07T12:52:54.891Z,22.50
2018-05-07T12:55:23.071Z,22.50
2018-05-07T12:57:51.305Z,22.60
2018-05-07T13:00:20.267Z,22.60
2018-05-07T13:02:48.456Z,22.60
2018-05-07T13:05:16.615Z,22.60
2018-05-07T13:07:44.808Z,22.50
2018-05-07T13:10:12.963Z,22.50
2018-05-07T13:12:41.144Z,22.60
2018-05-07T13:15:09.315Z,22.70
2018-05-07T13:17:37.467Z,22.70
2018-05-07T13:20:05.645Z,22.70
2018-05-07T13:22:33.830Z,22.70
2018-05-07T13:25:02.023Z,22.70
2018-05-07T13:27:30.191Z,22.70
2018-05-07T13:29:58.384Z,22.70
2018-05-07T13:32:27.309Z,22.70
2018-05-07T13:34:55.524Z,22.60
2018-05-07T13:37:23.679Z,22.60
2018-05-07T13:39:51.897Z,22.70
2018-05-07T13:42:20.830Z,22.70
2018-05-07T13:44:48.987Z,22.70
2018-05-07T13:47:17.203Z,22.70
2018-05-07T13:49:45.381Z,22.70
2018-05-07T13:52:13.572Z,22.70
2018-05-07T13:54:41.829Z,22.70
2018-05-07T13:57:10.049Z,22.70
2018-05-07T13:59:38.248Z,22.70
2018-05-07T14:02:06.476Z,22.70
2018-05-07T14:04:34.632Z,22.70
2018-05-07T14:07:02.784Z,22.70
2018-05-07T14:09:30.964Z,22.70
2018-05-07T14:11:59.149Z,22.70
2018-05-07T14:14:27.307Z,22.80
2018-05-07T14:16:55.495Z,22.70
2018-05-07T14:19:23.652Z,22.70
2018-05-07T14:21:51.826Z,22.80
2018-05-07T14:24:19.972Z,22.80
2018-05-07T14:26:48.163Z,22.80
2018-05-07T14:29:16.319Z,22.80
2018-05-07T14:31:44.482Z,22.80
2018-05-07T14:34:12.668Z,22.80
2018-05-07T14:36:40.819Z,22.80
2018-05-07T14:39:09.032Z,22.80
2018-05-07T14:41:37.221Z,22.80
2018-05-07T14:44:05.430Z,22.80
2018-05-07T14:46:33.583Z,22.80
2018-05-07T14:49:01.772Z,22.80
2018-05-07T14:51:29.922Z,22.80
2018-05-07T14:53:58.127Z,22.80
2018-05-07T14:56:26.279Z,22.80
2018-05-07T14:58:54.460Z,22.90
2018-05-07T15:01:22.612Z,22.90
2018-05-07T15:03:50.831Z,23.00
2018-05-07T15:06:18.989Z,23.00
2018-05-07T15:08:47.165Z,23.00
2018-05-07T15:11:15.359Z,23.00
2018-05-07T15:13:43.588Z,23.00
2018-05-07T15:16:11.740Z,23.00
2018-05-07T15:18:39.922Z,23.00
2018-05-07T15:21:08.080Z,23.00
2018-05-07T15:23:36.262Z,23.10
2018-05-07T15:26:04.433Z,23.10
2018-05-07T15:28:32.623Z,23.10
2018-05-07T15:31:00.773Z,23.10
2018-05-07T15:33:28.956Z,23.10
2018-05-07T15:35:57.112Z,23.10
2018-05-07T15:38:25.319Z,23.00
2018-05-07T15:40:53.471Z,23.00
2018-05-07T15:43:21.635Z,23.00
2018-05-07T15:45:49.813Z,23.00
2018-05-07T15:48:17.968Z,23.00
2018-05-07T15:50:46.914Z,23.00
2018-05-07T15:53:15.081Z,23.00
2018-05-07T15:55:43.273Z,23.10
2018-05-07T15:58:11.437Z,23.00
2018-05-07T16:00:39.616Z,23.00
2018-05-07T16:03:07.914Z,23.00
2018-05-07T16:05:36.736Z,23.00
2018-05-07T16:08:04.916Z,22.90
2018-05-07T16:10:33.084Z,23.00
2018-05-07T16:13:01.279Z,23.00
2018-05-07T16:15:29.512Z,23.00
2018-05-07T16:17:57.641Z,22.90
2018-05-07T16:20:25.825Z,22.80
2018-05-07T16:22:54.026Z,22.80
2018-05-07T16:25:22.195Z,22.80
2018-05-07T16:27:50.447Z,22.70
2018-05-07T16:30:18.676Z,22.70
2018-05-07T16:32:46.828Z,22.70
2018-05-07T16:35:15.788Z,22.60
2018-05-07T16:37:43.949Z,22.60
2018-05-07T16:40:12.175Z,22.50
2018-05-07T16:42:41.112Z,22.40
2018-05-07T16:45:09.337Z,22.40
2018-05-07T16:47:38.272Z,22.20
2018-05-07T16:50:06.460Z,22.20
2018-05-07T16:52:34.621Z,22.10
2018-05-07T16:55:02.824Z,21.90
2018-05-07T16:57:30.992Z,21.80
2018-05-07T16:59:59.196Z,21.70
2018-05-07T17:02:28.182Z,21.50
2018-05-07T17:04:56.341Z,21.50
2018-05-07T17:07:24.584Z,21.40
2018-05-07T17:09:52.731Z,21.40
2018-05-07T17:12:20.932Z,21.30
2018-05-07T17:14:49.084Z,21.20
2018-05-07T17:17:17.278Z,21.20
2018-05-07T17:19:45.433Z,21.10
2018-05-07T17:22:13.618Z,21.00
2018-05-07T17:24:41.851Z,21.00
2018-05-07T17:27:10.049Z,20.90
2018-05-07T17:29:38.192Z,20.80
2018-05-07T17:32:06.398Z,20.80
2018-05-07T17:34:34.575Z,20.70
2018-05-07T17:37:02.747Z,20.60
2018-05-07T17:39:30.930Z,20.60
2018-05-07T17:41:59.092Z,20.50
2018-05-07T17:44:39.083Z,20.40
2018-05-07T17:47:19.004Z,20.30
2018-05-07T17:49:47.195Z,20.20
2018-05-07T17:52:15.393Z,20.10
2018-05-07T17:54:43.613Z,20.00
2018-05-07T17:57:12.540Z,19.80
2018-05-07T17:59:40.746Z,19.80
2018-05-07T18:02:08.909Z,19.70
2018-05-07T18:04:37.153Z,19.60
2018-05-07T18:07:05.309Z,19.50
2018-05-07T18:09:33.506Z,19.50
2018-05-07T18:12:01.662Z,19.30
2018-05-07T18:14:29.849Z,19.30
2018-05-07T18:16:58.026Z,19.10
2018-05-07T18:19:26.418Z,19.10
2018-05-07T18:21:54.649Z,19.00
2018-05-07T18:24:23.180Z,18.90
2018-05-07T18:26:51.366Z,18.80
2018-05-07T18:29:19.578Z,18.60
2018-05-07T18:31:47.869Z,18.60
2018-05-07T18:34:16.075Z,18.40
2018-05-07T18:36:44.240Z,18.30
2018-05-07T18:39:12.401Z,18.20
2018-05-07T18:41:40.608Z,18.10
2018-05-07T18:44:08.759Z,18.00
2018-05-07T18:46:36.942Z,17.90
2018-05-07T18:49:05.103Z,17.70
2018-05-07T18:51:33.291Z,17.60
2018-05-07T18:54:01.456Z,17.50
2018-05-07T18:56:29.772Z,17.40
2018-05-07T18:58:57.935Z,17.30
2018-05-07T19:01:26.139Z,17.20
2018-05-07T19:03:55.090Z,17.00
2018-05-07T19:06:23.303Z,16.90
2018-05-07T19:08:51.493Z,16.90
2018-05-07T19:11:19.697Z,16.90
2018-05-07T19:13:47.860Z,16.80
2018-05-07T19:16:16.898Z,16.70
2018-05-07T19:18:45.064Z,16.60
2018-05-07T19:21:13.285Z,16.50
2018-05-07T19:23:41.512Z,16.40
2018-05-07T19:26:09.747Z,16.40
2018-05-07T19:28:37.920Z,16.30
2018-05-07T19:31:06.108Z,16.20
2018-05-07T19:33:34.260Z,16.10
2018-05-07T19:36:02.485Z,16.10
2018-05-07T19:38:31.455Z,15.90
2018-05-07T19:40:59.674Z,16.00
2018-05-07T19:43:27.832Z,15.90
2018-05-07T19:45:56.007Z,15.80
2018-05-07T19:48:24.303Z,15.80
2018-05-07T19:50:52.475Z,15.70
2018-05-07T19:53:20.683Z,15.60
2018-05-07T19:55:48.914Z,15.60
2018-05-07T19:58:17.079Z,15.50
2018-05-07T20:00:45.299Z,15.50
2018-05-07T20:03:13.576Z,15.40
2018-05-07T20:05:41.745Z,15.40
2018-05-07T20:08:09.937Z,15.30
2018-05-07T20:10:38.096Z,15.20
2018-05-07T20:13:06.280Z,15.00
2018-05-07T20:15:34.449Z,14.90
2018-05-07T20:18:02.630Z,14.70
2018-05-07T20:20:30.784Z,14.60
2018-05-07T20:22:58.964Z,14.50
2018-05-07T20:25:27.115Z,14.40
2018-05-07T20:27:55.300Z,14.30
2018-05-07T20:30:23.450Z,14.30
2018-05-07T20:32:51.645Z,14.20
2018-05-07T20:35:19.808Z,14.20
2018-05-07T20:37:48.009Z,14.10
2018-05-07T20:40:16.180Z,14.10
2018-05-07T20:42:44.388Z,14.00
2018-05-07T20:45:12.628Z,13.90
2018-05-07T20:47:40.756Z,13.80
2018-05-07T20:50:08.943Z,13.70
2018-05-07T20:52:37.093Z,13.70
2018-05-07T20:55:05.276Z,13.50
2018-05-07T20:57:33.432Z,13.40
2018-05-07T21:00:01.615Z,13.30
2018-05-07T21:02:29.768Z,13.20
2018-05-07T21:04:57.945Z,13.10
2018-05-07T21:07:26.101Z,13.00
2018-05-07T21:09:54.304Z,12.90
2018-05-07T21:12:22.453Z,12.80
2018-05-07T21:14:50.628Z,12.70
2018-05-07T21:17:18.775Z,12.70
2018-05-07T21:19:46.957Z,12.70
2018-05-07T21:22:15.109Z,12.60
2018-05-07T21:24:43.277Z,12.50
2018-05-07T21:27:11.427Z,12.50
2018-05-07T21:29:39.609Z,12.40
2018-05-07T21:32:07.764Z,12.40
2018-05-07T21:34:35.939Z,12.30
2018-05-07T21:37:04.087Z,12.20
2018-05-07T21:39:32.280Z,12.20
2018-05-07T21:42:00.432Z,12.20
2018-05-07T21:44:28.590Z,12.20
2018-05-07T21:46:56.766Z,12.20
2018-05-07T21:49:25.686Z,12.20
2018-05-07T21:51:53.859Z,12.10
2018-05-07T21:54:22.012Z,12.10
2018-05-07T21:56:50.184Z,12.10
2018-05-07T21:59:18.332Z,12.00
2018-05-07T22:01:46.504Z,11.90
2018-05-07T22:04:14.656Z,11.90
2018-05-07T22:06:42.840Z,11.90
2018-05-07T22:09:10.992Z,11.80
2018-05-07T22:11:39.168Z,11.80
2018-05-07T22:14:07.323Z,11.80
2018-05-07T22:16:35.497Z,11.70
2018-05-07T22:19:03.649Z,11.70
2018-05-07T22:21:31.834Z,11.70
2018-05-07T22:23:59.996Z,11.60
2018-05-07T22:26:28.176Z,11.60
2018-05-07T22:28:56.327Z,11.60
2018-05-07T22:31:24.507Z,11.60
2018-05-07T22:33:53.426Z,11.50
2018-05-07T22:36:21.604Z,11.50
2018-05-07T22:38:49.753Z,11.40
2018-05-07T22:41:17.964Z,11.40
2018-05-07T22:43:46.118Z,11.30
2018-05-07T22:46:14.299Z,11.30
2018-05-07T22:48:42.464Z,11.30
2018-05-07T22:51:10.644Z,11.20
2018-05-07T22:53:38.795Z,11.10
2018-05-07T22:56:06.976Z,11.00
2018-05-07T22:58:35.128Z,11.00
2018-05-07T23:01:04.076Z,10.90
2018-05-07T23:03:32.223Z,10.80
2018-05-07T23:06:00.403Z,10.80
2018-05-07T23:08:28.554Z,10.80
2018-05-07T23:10:56.729Z,10.80
2018-05-07T23:13:25.646Z,10.70
2018-05-07T23:15:53.819Z,10.60
2018-05-07T23:18:21.972Z,10.60
2018-05-07T23:20:50.171Z,10.60
2018-05-07T23:23:18.329Z,10.50
2018-05-07T23:25:46.484Z,10.40
2018-05-07T23:28:14.660Z,10.40
2018-05-07T23:30:42.812Z,10.30
2018-05-07T23:33:10.996Z,10.30
2018-05-07T23:35:39.156Z,10.30
2018-05-07T23:38:07.332Z,10.30
2018-05-07T23:40:35.484Z,10.20
2018-05-07T23:43:03.668Z,10.10
2018-05-07T23:45:31.820Z,10.00
2018-05-07T23:48:00.009Z,10.00
2018-05-07T23:50:28.154Z,9.90
2018-05-07T23:52:56.324Z,9.90
2018-05-07T23:55:24.477Z,9.90
2018-05-07T23:57:52.649Z,9.90
